createdAt,value
2023-04-28T00:01:41.979Z,6.00
2023-04-28T00:04:09.135Z,6.00
2023-04-28T00:06:37.194Z,5.90
2023-04-28T00:09:04.039Z,5.90
2023-04-28T00:11:30.906Z,5.90
2023-04-28T00:13:57.607Z,5.90
2023-04-28T00:16:24.475Z,5.90
2023-04-28T00:18:52.024Z,5.90
2023-04-28T00:21:18.848Z,5.90
2023-04-28T00:23:45.841Z,5.90
2023-04-28T00:26:12.679Z,5.80
2023-04-28T00:28:42.156Z,5.80
2023-04-28T00:31:15.817Z,5.80
2023-04-28T00:33:43.305Z,5.80
2023-04-28T00:36:11.055Z,5.70
2023-04-28T00:38:37.797Z,5.70
2023-04-28T00:41:04.690Z,5.70
2023-04-28T00:43:31.621Z,5.70
2023-04-28T00:45:58.556Z,5.60
2023-04-28T00:48:25.508Z,5.50
2023-04-28T00:50:52.511Z,5.40
2023-04-28T00:53:19.376Z,5.40
2023-04-28T00:55:46.914Z,5.40
2023-04-28T00:58:13.628Z,5.30
2023-04-28T01:00:40.604Z,5.30
2023-04-28T01:03:08.050Z,5.30
2023-04-28T01:05:35.494Z,5.20
2023-04-28T01:08:03.050Z,5.20
2023-04-28T01:10:29.790Z,5.20
2023-04-28T01:12:59.936Z,5.10
2023-04-28T01:15:26.865Z,5.10
2023-04-28T01:17:55.270Z,5.10
2023-04-28T01:20:22.093Z,5.20
2023-04-28T01:22:49.075Z,5.20
2023-04-28T01:25:16.005Z,5.10
2023-04-28T01:27:42.725Z,5.10
2023-04-28T01:30:09.915Z,5.10
2023-04-28T01:32:36.746Z,5.00
2023-04-28T01:35:03.619Z,5.00
2023-04-28T01:37:30.548Z,4.90
2023-04-28T01:39:57.331Z,4.90
2023-04-28T01:42:25.124Z,4.90
2023-04-28T01:44:53.011Z,4.90
2023-04-28T01:47:20.488Z,4.80
2023-04-28T01:49:48.390Z,4.80
2023-04-28T01:52:15.198Z,4.80
2023-04-28T01:54:42.146Z,4.80
2023-04-28T01:57:09.659Z,4.70
2023-04-28T01:59:36.842Z,4.70
2023-04-28T02:02:05.586Z,4.60
2023-04-28T02:04:33.657Z,4.60
2023-04-28T02:07:00.418Z,4.60
2023-04-28T02:09:27.187Z,4.60
2023-04-28T02:11:53.927Z,4.50
2023-04-28T02:14:21.512Z,4.50
2023-04-28T02:16:48.242Z,4.50
2023-04-28T02:19:15.520Z,4.50
2023-04-28T02:21:43.210Z,4.50
2023-04-28T02:24:10.055Z,4.40
2023-04-28T02:26:36.815Z,4.50
2023-04-28T02:29:06.730Z,4.50
2023-04-28T02:31:33.911Z,4.50
2023-04-28T02:34:00.688Z,4.50
2023-04-28T02:36:27.865Z,4.50
2023-04-28T02:38:54.690Z,4.50
2023-04-28T02:41:21.491Z,4.40
2023-04-28T02:43:48.307Z,4.40
2023-04-28T02:46:15.268Z,4.40
2023-04-28T02:48:42.217Z,4.30
2023-04-28T02:51:12.223Z,4.30
2023-04-28T02:53:39.047Z,4.30
2023-04-28T02:56:06.345Z,4.30
2023-04-28T02:58:33.719Z,4.30
2023-04-28T03:01:01.290Z,4.30
2023-04-28T03:03:28.223Z,4.30
2023-04-28T03:05:56.939Z,4.30
2023-04-28T03:08:24.870Z,4.30
2023-04-28T03:10:53.018Z,4.30
2023-04-28T03:13:19.812Z,4.20
2023-04-28T03:15:46.930Z,4.20
2023-04-28T03:18:13.660Z,4.20
2023-04-28T03:20:40.462Z,4.20
2023-04-28T03:23:07.468Z,4.20
2023-04-28T03:25:35.127Z,4.20
2023-04-28T03:28:02.169Z,4.20
2023-04-28T03:30:29.048Z,4.20
2023-04-28T03:32:57.277Z,4.20
2023-04-28T03:35:24.121Z,4.20
2023-04-28T03:37:51.330Z,4.20
2023-04-28T03:40:18.515Z,4.20
2023-04-28T03:43:04.902Z,4.30
2023-04-28T03:45:36.450Z,4.30
2023-04-28T03:48:03.236Z,4.20
2023-04-28T03:50:30.189Z,4.20
2023-04-28T03:52:57.291Z,4.20
2023-04-28T03:55:25.805Z,4.20
2023-04-28T03:57:52.782Z,4.10
2023-04-28T04:00:19.646Z,4.10
2023-04-28T04:02:48.540Z,4.10
2023-04-28T04:05:16.243Z,4.10
2023-04-28T04:07:43.312Z,4.10
2023-04-28T04:10:10.383Z,4.10
2023-04-28T04:12:39.393Z,4.10
2023-04-28T04:15:15.407Z,4.10
2023-04-28T04:17:46.868Z,4.10
2023-04-28T04:20:14.738Z,4.10
2023-04-28T04:22:43.567Z,4.10
2023-04-28T04:25:10.487Z,4.10
2023-04-28T04:27:37.740Z,4.10
2023-04-28T04:30:08.602Z,4.20
2023-04-28T04:32:37.061Z,4.20
2023-04-28T04:35:04.089Z,4.20
2023-04-28T04:37:30.883Z,4.20
2023-04-28T04:40:01.185Z,4.30
2023-04-28T04:42:32.712Z,4.30
2023-04-28T04:45:07.060Z,4.30
2023-04-28T04:47:34.247Z,4.30
2023-04-28T04:50:01.012Z,4.30
2023-04-28T04:52:30.062Z,4.40
2023-04-28T04:54:56.966Z,4.40
2023-04-28T04:57:24.848Z,4.40
2023-04-28T05:00:24.384Z,4.40
2023-04-28T05:02:55.372Z,4.50
2023-04-28T05:05:23.212Z,4.50
2023-04-28T05:08:05.927Z,4.60
2023-04-28T05:10:33.315Z,4.60
2023-04-28T05:13:01.966Z,4.70
2023-04-28T05:15:29.275Z,4.70
2023-04-28T05:18:29.234Z,4.70
2023-04-28T05:20:56.193Z,4.80
2023-04-28T05:23:23.438Z,4.80
2023-04-28T05:25:52.336Z,4.90
2023-04-28T05:28:21.907Z,5.00
2023-04-28T05:30:50.749Z,5.00
2023-04-28T05:33:17.561Z,5.10
2023-04-28T05:35:44.355Z,5.20
2023-04-28T05:38:11.395Z,5.30
2023-04-28T05:40:38.565Z,5.30
2023-04-28T05:43:05.716Z,5.40
2023-04-28T05:45:32.634Z,5.50
2023-04-28T05:47:59.949Z,5.50
2023-04-28T05:50:27.453Z,5.60
2023-04-28T05:52:57.499Z,5.70
2023-04-28T05:55:24.951Z,5.80
2023-04-28T05:57:54.862Z,5.90
2023-04-28T06:00:24.426Z,6.00
2023-04-28T06:02:54.281Z,6.10
2023-04-28T06:05:23.463Z,6.20
2023-04-28T06:07:59.495Z,6.20
2023-04-28T06:10:30.880Z,6.30
2023-04-28T06:12:57.811Z,6.40
2023-04-28T06:15:24.895Z,6.40
2023-04-28T06:17:52.239Z,6.60
2023-04-28T06:20:19.195Z,6.60
2023-04-28T06:22:51.545Z,6.70
2023-04-28T06:25:18.895Z,6.80
2023-04-28T06:27:46.919Z,6.90
2023-04-28T06:30:22.060Z,7.00
2023-04-28T06:32:51.215Z,7.00
2023-04-28T06:35:18.228Z,7.10
2023-04-28T06:37:46.437Z,7.20
2023-04-28T06:40:15.361Z,7.30
2023-04-28T06:42:48.054Z,7.40
2023-04-28T06:45:20.698Z,7.50
2023-04-28T06:47:51.202Z,7.50
2023-04-28T06:50:20.342Z,7.60
2023-04-28T06:52:47.253Z,7.60
2023-04-28T06:55:15.472Z,7.70
2023-04-28T06:57:42.575Z,7.70
2023-04-28T07:00:10.391Z,7.80
2023-04-28T07:02:37.826Z,7.80
2023-04-28T07:05:05.239Z,7.90
2023-04-28T07:07:32.217Z,8.00
2023-04-28T07:10:00.500Z,8.10
2023-04-28T07:12:27.646Z,8.10
2023-04-28T07:14:55.895Z,8.20
2023-04-28T07:17:22.884Z,8.20
2023-04-28T07:19:55.706Z,8.30
2023-04-28T07:22:22.848Z,8.40
2023-04-28T07:24:49.822Z,8.50
2023-04-28T07:27:17.258Z,8.60
2023-04-28T07:29:44.197Z,8.60
2023-04-28T07:32:11.222Z,8.70
2023-04-28T07:34:38.205Z,8.80
2023-04-28T07:37:05.117Z,8.80
2023-04-28T07:39:33.999Z,8.90
2023-04-28T07:42:02.650Z,8.90
2023-04-28T07:44:30.086Z,9.00
2023-04-28T07:46:57.059Z,9.10
2023-04-28T07:49:24.146Z,9.20
2023-04-28T07:51:53.606Z,9.20
2023-04-28T07:54:20.637Z,9.30
2023-04-28T07:56:47.625Z,9.40
2023-04-28T07:59:14.762Z,9.40
2023-04-28T08:01:42.937Z,9.50
2023-04-28T08:04:10.159Z,9.50
2023-04-28T08:06:38.001Z,9.60
2023-04-28T08:09:06.363Z,9.70
2023-04-28T08:11:35.266Z,9.70
2023-04-28T08:14:03.321Z,9.80
2023-04-28T08:16:31.010Z,9.90
2023-04-28T08:18:58.079Z,10.00
2023-04-28T08:21:25.119Z,10.10
2023-04-28T08:23:52.055Z,10.10
2023-04-28T08:26:18.877Z,10.20
2023-04-28T08:28:45.861Z,10.30
2023-04-28T08:31:13.079Z,10.40
2023-04-28T08:33:39.966Z,10.50
2023-04-28T08:36:07.100Z,10.50
2023-04-28T08:38:34.066Z,10.50
2023-04-28T08:41:03.697Z,10.50
2023-04-28T08:43:32.649Z,10.60
2023-04-28T08:46:00.368Z,10.60
2023-04-28T08:48:31.003Z,10.70
2023-04-28T08:50:59.388Z,10.70
2023-04-28T08:53:27.002Z,10.80
2023-04-28T08:55:56.484Z,10.80
2023-04-28T08:58:24.338Z,10.90
2023-04-28T09:00:51.832Z,10.90
2023-04-28T09:03:21.023Z,10.90
2023-04-28T09:05:50.671Z,11.00
2023-04-28T09:08:18.878Z,11.00
2023-04-28T09:10:46.008Z,11.10
2023-04-28T09:13:24.720Z,11.10
2023-04-28T09:15:51.808Z,11.10
2023-04-28T09:18:18.877Z,11.20
2023-04-28T09:20:46.239Z,11.20
2023-04-28T09:23:14.386Z,11.30
2023-04-28T09:25:41.299Z,11.30
2023-04-28T09:28:22.082Z,11.40
2023-04-28T09:30:49.303Z,11.50
2023-04-28T09:33:16.481Z,11.60
2023-04-28T09:35:45.206Z,11.60
2023-04-28T09:38:12.356Z,11.60
2023-04-28T09:40:54.592Z,11.60
2023-04-28T09:43:24.597Z,11.60
2023-04-28T09:45:51.869Z,11.70
2023-04-28T09:48:26.932Z,11.80
2023-04-28T09:50:55.131Z,11.80
2023-04-28T09:53:22.889Z,11.80
2023-04-28T09:55:50.897Z,12.00
2023-04-28T09:58:19.727Z,12.10
2023-04-28T10:00:48.142Z,12.10
2023-04-28T10:03:15.550Z,12.20
2023-04-28T10:05:42.589Z,12.30
2023-04-28T10:08:09.727Z,12.30
2023-04-28T10:10:37.689Z,12.30
2023-04-28T10:13:04.850Z,12.40
2023-04-28T10:15:32.467Z,12.40
2023-04-28T10:17:59.855Z,12.40
2023-04-28T10:20:33.334Z,12.40
2023-04-28T10:23:21.716Z,12.50
2023-04-28T10:25:54.697Z,12.50
2023-04-28T10:28:21.742Z,12.50
2023-04-28T10:31:07.390Z,12.50
2023-04-28T10:33:34.257Z,12.50
2023-04-28T10:36:01.070Z,12.60
2023-04-28T10:38:30.975Z,12.60
2023-04-28T10:41:07.089Z,12.60
2023-04-28T10:43:35.144Z,12.70
2023-04-28T10:46:07.531Z,12.80
2023-04-28T10:48:46.803Z,12.90
2023-04-28T10:51:16.692Z,12.90
2023-04-28T10:53:47.616Z,12.90
2023-04-28T10:56:18.480Z,12.90
2023-04-28T10:58:49.403Z,12.90
2023-04-28T11:01:21.558Z,12.90
2023-04-28T11:03:54.647Z,13.00
2023-04-28T11:06:30.386Z,13.00
2023-04-28T11:09:00.573Z,13.00
2023-04-28T11:11:45.160Z,13.10
2023-04-28T11:14:19.401Z,13.20
2023-04-28T11:16:52.336Z,13.20
2023-04-28T11:19:21.599Z,13.30
2023-04-28T11:21:48.992Z,13.40
2023-04-28T11:24:18.743Z,13.40
2023-04-28T11:26:55.305Z,13.50
2023-04-28T11:29:41.026Z,13.50
2023-04-28T11:32:10.045Z,13.50
2023-04-28T11:34:37.494Z,13.50
2023-04-28T11:37:08.633Z,13.50
2023-04-28T11:39:41.078Z,13.40
2023-04-28T11:42:11.450Z,13.40
2023-04-28T11:44:38.379Z,13.40
2023-04-28T11:47:06.326Z,13.40
2023-04-28T11:50:20.883Z,13.50
2023-04-28T11:53:00.448Z,13.50
2023-04-28T11:56:06.636Z,13.50
2023-04-28T11:59:03.913Z,13.50
2023-04-28T12:02:22.755Z,13.50
2023-04-28T12:13:02.916Z,13.50
2023-04-28T12:16:06.811Z,13.50
2023-04-28T12:18:38.872Z,13.50
2023-04-28T12:21:28.254Z,13.50
2023-04-28T12:23:58.332Z,13.50
2023-04-28T12:33:02.142Z,13.40
2023-04-28T12:35:29.407Z,13.40
2023-04-28T12:37:56.958Z,13.30
2023-04-28T12:40:24.595Z,13.30
2023-04-28T12:42:51.773Z,13.30
2023-04-28T12:45:18.750Z,13.40
2023-04-28T12:47:46.143Z,13.40
2023-04-28T12:50:13.263Z,13.40
2023-04-28T12:52:40.294Z,13.40
2023-04-28T12:55:07.468Z,13.40
2023-04-28T12:57:38.980Z,13.40
2023-04-28T13:00:07.057Z,13.40
2023-04-28T13:02:34.056Z,13.40
2023-04-28T13:05:01.881Z,13.40
2023-04-28T13:07:30.274Z,13.40
2023-04-28T13:09:57.326Z,13.40
2023-04-28T13:12:24.239Z,13.40
2023-04-28T13:14:51.120Z,13.40
2023-04-28T13:17:18.057Z,13.40
2023-04-28T13:19:45.232Z,13.40
2023-04-28T13:22:12.484Z,13.40
2023-04-28T13:24:39.383Z,13.40
2023-04-28T13:27:09.676Z,13.40
2023-04-28T13:29:36.944Z,13.40
2023-04-28T13:32:05.425Z,13.40
2023-04-28T13:34:32.619Z,13.50
2023-04-28T13:36:59.311Z,13.50
2023-04-28T13:39:26.110Z,13.50
2023-04-28T13:41:52.909Z,13.50
2023-04-28T13:44:19.751Z,13.50
2023-04-28T13:46:47.220Z,13.50
2023-04-28T13:49:13.934Z,13.50
2023-04-28T13:51:41.040Z,13.50
2023-04-28T13:54:08.946Z,13.50
2023-04-28T13:56:36.452Z,13.60
2023-04-28T13:59:03.654Z,13.50
2023-04-28T14:01:30.522Z,13.50
2023-04-28T14:03:57.630Z,13.60
2023-04-28T14:06:24.536Z,13.60
2023-04-28T14:08:51.329Z,13.50
2023-04-28T14:11:18.229Z,13.50
2023-04-28T14:13:44.929Z,13.60
2023-04-28T14:16:11.981Z,13.60
2023-04-28T14:18:38.912Z,13.60
2023-04-28T14:21:08.302Z,13.60
2023-04-28T14:23:35.699Z,13.60
2023-04-28T14:26:02.698Z,13.50
2023-04-28T14:28:29.620Z,13.50
2023-04-28T14:30:56.555Z,13.60
2023-04-28T14:33:23.734Z,13.50
2023-04-28T14:35:50.519Z,13.50
2023-04-28T14:38:17.435Z,13.40
2023-04-28T14:40:44.331Z,13.50
2023-04-28T14:43:11.125Z,13.50
2023-04-28T14:45:40.861Z,13.50
2023-04-28T14:48:10.377Z,13.50
2023-04-28T14:50:37.694Z,13.50
2023-04-28T14:53:07.405Z,13.50
2023-04-28T14:55:34.380Z,13.50
2023-04-28T14:58:01.861Z,13.50
2023-04-28T15:00:29.344Z,13.50
2023-04-28T15:02:56.334Z,13.50
2023-04-28T15:05:23.106Z,13.50
2023-04-28T15:07:49.863Z,13.50
2023-04-28T15:10:17.529Z,13.50
2023-04-28T15:12:44.384Z,13.40
2023-04-28T15:15:11.354Z,13.40
2023-04-28T15:17:38.123Z,13.30
2023-04-28T15:20:05.328Z,13.30
2023-04-28T15:22:32.156Z,13.40
2023-04-28T15:24:59.032Z,13.40
2023-04-28T15:27:25.834Z,13.40
2023-04-28T15:29:52.658Z,13.40
2023-04-28T15:32:19.460Z,13.40
2023-04-28T15:34:46.513Z,13.40
2023-04-28T15:37:34.692Z,13.40
2023-04-28T15:40:04.668Z,13.30
2023-04-28T15:42:32.706Z,13.30
2023-04-28T15:44:59.711Z,13.30
2023-04-28T15:47:27.182Z,13.20
2023-04-28T15:49:53.943Z,13.20
2023-04-28T15:52:23.154Z,13.20
2023-04-28T15:54:50.064Z,13.20
2023-04-28T15:57:17.204Z,13.20
2023-04-28T15:59:43.898Z,13.30
2023-04-28T16:02:10.738Z,13.30
2023-04-28T16:04:37.909Z,13.30
2023-04-28T16:07:04.877Z,13.30
2023-04-28T16:09:31.665Z,13.30
2023-04-28T16:12:00.865Z,13.30
2023-04-28T16:14:27.972Z,13.30
2023-04-28T16:16:55.692Z,13.30
2023-04-28T16:19:22.776Z,13.30
2023-04-28T16:21:49.722Z,13.30
2023-04-28T16:24:16.547Z,13.30
2023-04-28T16:26:43.264Z,13.30
2023-04-28T16:29:11.697Z,13.30
2023-04-28T16:31:39.628Z,13.30
2023-04-28T16:34:06.354Z,13.30
2023-04-28T16:36:33.272Z,13.30
2023-04-28T16:39:00.082Z,13.30
2023-04-28T16:41:26.827Z,13.20
2023-04-28T16:43:53.588Z,13.20
2023-04-28T16:46:20.525Z,13.10
2023-04-28T16:48:47.347Z,13.10
2023-04-28T16:51:14.245Z,13.10
2023-04-28T16:53:41.855Z,13.00
2023-04-28T16:56:10.430Z,13.00
2023-04-28T16:58:37.697Z,12.90
2023-04-28T17:01:04.462Z,12.90
2023-04-28T17:03:31.576Z,12.90
2023-04-28T17:05:59.549Z,12.80
2023-04-28T17:08:26.740Z,12.70
2023-04-28T17:10:53.529Z,12.70
2023-04-28T17:13:20.260Z,12.60
2023-04-28T17:15:53.565Z,12.60
2023-04-28T17:18:20.454Z,12.50
2023-04-28T17:20:48.195Z,12.50
2023-04-28T17:23:15.770Z,12.40
2023-04-28T17:25:42.526Z,12.40
2023-04-28T17:28:09.253Z,12.40
2023-04-28T17:30:36.139Z,12.40
2023-04-28T17:33:03.076Z,12.40
2023-04-28T17:35:29.860Z,12.30
2023-04-28T17:37:56.980Z,12.30
2023-04-28T17:40:24.327Z,12.30
2023-04-28T17:42:51.743Z,12.30
2023-04-28T17:45:18.527Z,12.30
2023-04-28T17:47:45.473Z,12.20
2023-04-28T17:50:12.244Z,12.20
2023-04-28T17:52:39.488Z,12.20
2023-04-28T17:55:07.034Z,12.10
2023-04-28T17:57:33.875Z,12.10
2023-04-28T18:00:00.618Z,12.10
2023-04-28T18:02:27.527Z,12.10
2023-04-28T18:04:54.852Z,12.10
2023-04-28T18:07:21.640Z,12.10
2023-04-28T18:09:48.472Z,12.10
2023-04-28T18:12:15.447Z,12.10
2023-04-28T18:14:44.485Z,12.10
2023-04-28T18:17:11.685Z,12.10
2023-04-28T18:19:38.391Z,12.10
2023-04-28T18:22:06.607Z,12.00
2023-04-28T18:24:33.470Z,12.00
2023-04-28T18:27:00.479Z,12.00
2023-04-28T18:29:27.231Z,12.00
2023-04-28T18:31:54.806Z,12.00
2023-04-28T18:34:21.662Z,12.00
2023-04-28T18:36:48.399Z,11.90
2023-04-28T18:39:15.200Z,11.90
2023-04-28T18:41:42.136Z,11.90
2023-04-28T18:44:08.963Z,11.90
2023-04-28T18:46:36.386Z,11.90
2023-04-28T18:49:03.547Z,11.80
2023-04-28T18:51:30.381Z,11.80
2023-04-28T18:53:57.387Z,11.80
2023-04-28T18:56:24.517Z,11.80
2023-04-28T18:58:51.320Z,11.80
2023-04-28T19:01:18.389Z,11.80
2023-04-28T19:03:45.382Z,11.80
2023-04-28T19:06:12.802Z,11.70
2023-04-28T19:08:39.577Z,11.70
2023-04-28T19:11:06.916Z,11.70
2023-04-28T19:13:34.502Z,11.70
2023-04-28T19:16:01.213Z,11.70
2023-04-28T19:18:28.673Z,11.70
2023-04-28T19:21:02.154Z,11.60
2023-04-28T19:23:29.486Z,11.70
2023-04-28T19:25:57.007Z,11.60
2023-04-28T19:28:25.892Z,11.60
2023-04-28T19:30:56.617Z,11.60
2023-04-28T19:33:25.546Z,11.60
2023-04-28T19:35:54.599Z,11.50
2023-04-28T19:38:23.013Z,11.50
2023-04-28T19:40:50.790Z,11.50
2023-04-28T19:43:18.021Z,11.50
2023-04-28T19:45:46.625Z,11.50
2023-04-28T19:48:14.368Z,11.40
2023-04-28T19:50:42.194Z,11.40
2023-04-28T19:53:09.622Z,11.40
2023-04-28T19:55:36.858Z,11.30
2023-04-28T19:58:03.947Z,11.30
2023-04-28T20:00:32.445Z,11.30
2023-04-28T20:03:00.043Z,11.20
2023-04-28T20:05:27.132Z,11.20
2023-04-28T20:07:56.217Z,11.10
2023-04-28T20:10:23.543Z,11.20
2023-04-28T20:12:50.417Z,11.20
2023-04-28T20:15:18.105Z,11.20
2023-04-28T20:17:46.250Z,11.20
2023-04-28T20:20:13.377Z,11.10
2023-04-28T20:22:41.054Z,11.10
2023-04-28T20:25:09.938Z,11.00
2023-04-28T20:27:36.922Z,11.00
2023-04-28T20:30:03.961Z,10.90
2023-04-28T20:32:31.113Z,11.00
2023-04-28T20:34:57.854Z,11.00
2023-04-28T20:37:26.352Z,11.00
2023-04-28T20:39:53.384Z,11.00
2023-04-28T20:42:20.444Z,11.00
2023-04-28T20:44:47.182Z,11.00
2023-04-28T20:47:14.352Z,11.00
2023-04-28T20:49:42.330Z,11.00
2023-04-28T20:52:09.086Z,10.80
2023-04-28T20:54:36.252Z,10.80
2023-04-28T20:57:04.552Z,10.80
2023-04-28T20:59:32.820Z,10.70
2023-04-28T21:02:00.306Z,10.70
2023-04-28T21:04:28.241Z,10.70
2023-04-28T21:06:55.507Z,10.70
2023-04-28T21:09:24.925Z,10.70
2023-04-28T21:11:51.779Z,10.80
2023-04-28T21:14:18.690Z,10.80
2023-04-28T21:16:45.486Z,10.80
2023-04-28T21:19:12.321Z,10.80
2023-04-28T21:21:39.045Z,10.80
2023-04-28T21:24:06.220Z,10.70
2023-04-28T21:26:33.036Z,10.60
2023-04-28T21:29:01.546Z,10.60
2023-04-28T21:31:28.414Z,10.50
2023-04-28T21:33:55.236Z,10.60
2023-04-28T21:36:22.005Z,10.50
2023-04-28T21:38:49.061Z,10.50
2023-04-28T21:41:15.913Z,10.60
2023-04-28T21:43:42.770Z,10.50
2023-04-28T21:46:09.639Z,10.60
2023-04-28T21:48:37.456Z,10.60
2023-04-28T21:51:04.553Z,10.50
2023-04-28T21:53:31.324Z,10.50
2023-04-28T21:55:58.107Z,10.50
2023-04-28T21:58:24.852Z,10.50
2023-04-28T22:00:52.219Z,10.50
2023-04-28T22:03:19.086Z,10.50
2023-04-28T22:05:45.946Z,10.40
2023-04-28T22:08:13.205Z,10.40
2023-04-28T22:10:39.994Z,10.40
2023-04-28T22:13:06.950Z,10.40
2023-04-28T22:15:34.417Z,10.40
2023-04-28T22:18:01.309Z,10.40
2023-04-28T22:20:29.018Z,10.50
2023-04-28T22:22:57.497Z,10.40
2023-04-28T22:25:24.487Z,10.40
2023-04-28T22:27:51.324Z,10.40
2023-04-28T22:30:18.141Z,10.30
2023-04-28T22:32:47.035Z,10.30
2023-04-28T22:35:14.115Z,10.30
2023-04-28T22:37:40.867Z,10.30
2023-04-28T22:40:08.449Z,10.30
2023-04-28T22:42:35.948Z,10.30
2023-04-28T22:45:04.447Z,10.30
2023-04-28T22:47:31.487Z,10.30
2023-04-28T22:49:58.313Z,10.30
2023-04-28T22:52:26.050Z,10.30
2023-04-28T22:54:53.588Z,10.20
2023-04-28T22:57:20.318Z,10.30
2023-04-28T22:59:47.013Z,10.20
2023-04-28T23:02:13.791Z,10.30
2023-04-28T23:04:41.109Z,10.20
2023-04-28T23:07:08.393Z,10.20
2023-04-28T23:09:37.065Z,10.20
2023-04-28T23:12:04.136Z,10.20
2023-04-28T23:14:31.532Z,10.20
2023-04-28T23:16:58.307Z,10.10
2023-04-28T23:19:25.045Z,10.10
2023-04-28T23:21:51.733Z,10.10
2023-04-28T23:24:18.475Z,10.10
2023-04-28T23:26:45.275Z,10.00
2023-04-28T23:29:12.118Z,10.00
2023-04-28T23:31:39.896Z,9.90
2023-04-28T23:34:07.021Z,10.00
2023-04-28T23:36:33.798Z,10.00
2023-04-28T23:39:01.529Z,10.00
2023-04-28T23:41:29.441Z,9.90
2023-04-28T23:43:56.657Z,9.90
2023-04-28T23:46:23.897Z,9.80
2023-04-28T23:48:50.850Z,9.80
2023-04-28T23:51:17.561Z,9.80
2023-04-28T23:53:44.405Z,9.80
2023-04-28T23:56:11.339Z,9.80
2023-04-28T23:58:38.599Z,9.80
